Time;durP1;ratioP1;P1;durP2;ratioP2;P2;SDS_P1;SDS_P2;PMS_P1;PMS_P2;Temp;Humidity;BMP_temperature;BMP_pressure;BME280_temperature;BME280_humidity;BME280_pressure;Samples;Min_cycle;Max_cycle;Signal;HPM_P1;HPM_P2
2021/07/01 14:02:01;;;;;;;3.63;2.28;;;;;;;;;;5111988;27;20387;-81
2021/07/01 14:04:28;;;;;;;5.13;3.13;;;;;;;;;;5114753;28;20088;-81
2021/07/01 14:06:57;;;;;;;5.82;3.05;;;;;;;;;;5114504;28;20040;-81
2021/07/01 14:09:24;;;;;;;4.90;3.30;;;;;;;;;;5114203;28;20028;-82
2021/07/01 14:11:57;;;;;;;9.40;4.70;;;;;;;;;;5092503;28;20041;-81
2021/07/01 14:14:23;;;;;;;5.93;3.17;;;;;;;;;;5094941;28;20041;-79
2021/07/01 14:16:53;;;;;;;6.28;3.47;;;;;;;;;;5074656;22;20449;-80
2021/07/01 14:19:21;;;;;;;4.95;3.13;;;;;;;;;;5056570;28;20068;-80
2021/07/01 14:21:50;;;;;;;5.13;3.22;;;;;;;;;;5052981;28;20041;-80
2021/07/01 14:24:19;;;;;;;6.13;3.45;;;;;;;;;;5051397;28;20061;-81
2021/07/01 14:26:47;;;;;;;7.53;4.47;;;;;;;;;;5051701;28;20049;-79
2021/07/01 14:29:15;;;;;;;9.07;6.40;;;;;;;;;;5050671;28;20056;-79
2021/07/01 14:31:43;;;;;;;7.13;5.20;;;;;;;;;;5049773;28;20072;-80
2021/07/01 14:34:10;;;;;;;6.88;4.35;;;;;;;;;;5051425;28;20049;-79
2021/07/01 14:36:47;;;;;;;6.85;4.70;;;;;;;;;;5051687;28;20045;-80
2021/07/01 14:39:19;;;;;;;5.90;3.90;;;;;;;;;;5050724;28;20461;-80
2021/07/01 14:41:46;;;;;;;5.10;3.05;;;;;;;;;;5049758;28;20049;-81
2021/07/01 14:44:21;;;;;;;4.50;2.92;;;;;;;;;;5050039;28;20045;-81
2021/07/01 14:46:49;;;;;;;5.00;2.70;;;;;;;;;;5050107;28;20736;-81
2021/07/01 14:49:19;;;;;;;4.50;2.65;;;;;;;;;;5053010;28;20045;-80
2021/07/01 14:51:49;;;;;;;4.88;2.55;;;;;;;;;;5058551;28;20069;-80
2021/07/01 14:54:17;;;;;;;;;;;;;;;;;;5067290;28;20109;-79
2021/07/01 14:56:56;;;;;;;4.38;2.63;;;;;;;;;;5062534;28;19972;-79
2021/07/01 14:59:41;;;;;;;4.60;2.40;;;;;;;;;;5043849;28;20057;-79
2021/07/01 15:02:11;;;;;;;4.18;2.20;;;;;;;;;;5012620;28;20046;-80
2021/07/01 15:04:40;;;;;;;4.88;2.80;;;;;;;;;;5010845;28;20105;-79
2021/07/01 15:07:11;;;;;;;5.55;2.58;;;;;;;;;;5009634;28;20414;-80
2021/07/01 15:09:47;;;;;;;;;;;;;;;;;;5010721;28;20599;-80
2021/07/01 15:12:18;;;;;;;6.25;2.78;;;;;;;;;;5031749;28;19921;-81
2021/07/01 15:14:50;;;;;;;5.22;2.72;;;;;;;;;;5038017;28;20056;-82
2021/07/01 15:17:17;;;;;;;5.82;3.10;;;;;;;;;;5036546;28;20049;-80
2021/07/01 15:19:45;;;;;;;5.38;3.40;;;;;;;;;;5036722;28;20111;-81
2021/07/01 15:22:13;;;;;;;6.30;3.25;;;;;;;;;;5036240;28;20046;-81
2021/07/01 15:24:41;;;;;;;5.53;3.80;;;;;;;;;;5036674;28;20079;-80
2021/07/01 15:27:12;;;;;;;6.68;4.63;;;;;;;;;;5036158;28;20136;-80
2021/07/01 15:29:39;;;;;;;5.20;3.53;;;;;;;;;;5036461;28;20104;-81
2021/07/01 15:32:07;;;;;;;5.65;3.80;;;;;;;;;;5037286;28;20049;-81
2021/07/01 15:34:34;;;;;;;5.53;3.80;;;;;;;;;;5037737;28;20049;-81
2021/07/01 15:37:01;;;;;;;5.95;3.70;;;;;;;;;;5036714;28;20054;-82
2021/07/01 15:39:30;;;;;;;5.65;3.65;;;;;;;;;;5036764;28;20041;-79
2021/07/01 15:41:59;;;;;;;7.18;4.43;;;;;;;;;;5036049;28;20109;-83
2021/07/01 15:44:26;;;;;;;5.38;3.53;;;;;;;;;;5036767;28;20049;-81
2021/07/01 15:46:55;;;;;;;10.40;7.90;;;;;;;;;;5036452;28;20050;-81
2021/07/01 15:49:22;;;;;;;6.78;4.07;;;;;;;;;;5036719;28;20045;-80
2021/07/01 15:51:49;;;;;;;8.07;5.18;;;;;;;;;;5035027;28;20086;-81
2021/07/01 15:54:16;;;;;;;5.90;3.70;;;;;;;;;;5035187;28;20633;-79
2021/07/01 15:56:48;;;;;;;6.10;4.40;;;;;;;;;;5034993;28;20050;-80
2021/07/01 15:59:16;;;;;;;6.43;4.93;;;;;;;;;;5034859;28;20099;-78
2021/07/01 16:01:43;;;;;;;8.15;5.40;;;;;;;;;;5034263;28;20050;-80
2021/07/01 16:04:12;;;;;;;7.25;5.28;;;;;;;;;;5037238;28;20113;-79
2021/07/01 16:06:41;;;;;;;9.18;7.30;;;;;;;;;;5037650;28;20045;-83
2021/07/01 16:09:08;;;;;;;6.57;4.50;;;;;;;;;;5040749;28;20076;-78
2021/07/01 16:11:36;;;;;;;10.40;7.13;;;;;;;;;;5028638;28;20104;-77
2021/07/01 16:14:05;;;;;;;8.40;5.93;;;;;;;;;;5016291;28;20046;-77
2021/07/01 16:16:32;;;;;;;6.82;5.45;;;;;;;;;;5017053;28;20491;-79
2021/07/01 16:19:00;;;;;;;7.03;4.53;;;;;;;;;;5016701;28;20050;-79
2021/07/01 16:21:27;;;;;;;7.55;4.55;;;;;;;;;;5017646;28;20056;-79
2021/07/01 16:24:02;;;;;;;6.45;4.55;;;;;;;;;;5016211;28;20045;-78
2021/07/01 16:26:29;;;;;;;7.30;4.63;;;;;;;;;;5017891;28;20080;-79
2021/07/01 16:28:58;;;;;;;6.72;4.95;;;;;;;;;;5017488;28;20462;-77
2021/07/01 16:31:28;;;;;;;10.52;7.45;;;;;;;;;;5017640;28;20050;-82
2021/07/01 16:33:56;;;;;;;6.55;4.53;;;;;;;;;;5016714;28;20096;-78
2021/07/01 16:36:23;;;;;;;6.07;4.18;;;;;;;;;;5017159;28;20109;-80
2021/07/01 16:38:50;;;;;;;5.93;4.05;;;;;;;;;;5017533;28;20054;-78
2021/07/01 16:41:17;;;;;;;6.15;3.97;;;;;;;;;;5015559;28;20080;-78
2021/07/01 16:43:44;;;;;;;6.18;4.50;;;;;;;;;;5016169;28;20046;-79
2021/07/01 16:46:15;;;;;;;5.55;3.70;;;;;;;;;;5016400;28;20054;-79
2021/07/01 16:48:49;;;;;;;5.78;3.92;;;;;;;;;;5016685;28;20050;-79
2021/07/01 16:51:20;;;;;;;7.22;4.95;;;;;;;;;;5016651;28;20046;-79
2021/07/01 16:53:48;;;;;;;7.30;4.60;;;;;;;;;;5016490;28;20124;-79
2021/07/01 16:56:16;;;;;;;6.07;3.22;;;;;;;;;;5017048;28;20084;-79
2021/07/01 16:58:46;;;;;;;4.95;3.17;;;;;;;;;;5017025;28;20062;-79
2021/07/01 17:01:13;;;;;;;8.05;4.75;;;;;;;;;;5017057;28;20503;-79
2021/07/01 17:03:40;;;;;;;6.18;4.10;;;;;;;;;;5018364;28;20046;-80
2021/07/01 17:06:10;;;;;;;6.03;4.10;;;;;;;;;;5016709;28;20381;-79
2021/07/01 17:08:38;;;;;;;5.60;3.40;;;;;;;;;;5019030;28;20131;-80
2021/07/01 17:11:07;;;;;;;5.97;4.13;;;;;;;;;;5024962;28;20049;-80
2021/07/01 17:13:34;;;;;;;6.45;4.25;;;;;;;;;;5038485;28;20050;-79
2021/07/01 17:16:06;;;;;;;7.72;6.00;;;;;;;;;;5037271;28;20524;-80
2021/07/01 17:18:38;;;;;;;6.25;4.18;;;;;;;;;;5037430;28;20057;-80
2021/07/01 17:21:07;;;;;;;6.50;4.30;;;;;;;;;;5036566;28;20458;-81
2021/07/01 17:23:37;;;;;;;5.97;3.58;;;;;;;;;;5038101;28;20511;-79
2021/07/01 17:26:08;;;;;;;8.80;4.18;;;;;;;;;;5037434;28;20128;-81
2021/07/01 17:28:36;;;;;;;4.95;3.45;;;;;;;;;;5037077;28;20049;-80
2021/07/01 17:31:04;;;;;;;6.22;4.05;;;;;;;;;;5036873;28;20046;-81
2021/07/01 17:33:31;;;;;;;5.25;3.38;;;;;;;;;;5036418;28;20049;-80
2021/07/01 17:36:00;;;;;;;5.40;4.10;;;;;;;;;;5036361;28;20053;-80
2021/07/01 17:38:29;;;;;;;5.00;3.30;;;;;;;;;;5035720;28;20088;-81
2021/07/01 17:41:00;;;;;;;9.70;7.85;;;;;;;;;;5036117;28;20487;-81
2021/07/01 17:43:28;;;;;;;5.25;3.30;;;;;;;;;;5037940;28;20549;-79
2021/07/01 17:45:56;;;;;;;5.90;3.33;;;;;;;;;;5035531;28;20045;-79
2021/07/01 17:48:24;;;;;;;6.88;4.50;;;;;;;;;;5035819;28;20049;-80
2021/07/01 17:50:52;;;;;;;6.70;5.00;;;;;;;;;;5036056;28;20045;-80
2021/07/01 17:53:19;;;;;;;4.65;3.15;;;;;;;;;;5036525;28;20049;-80
2021/07/01 17:55:46;;;;;;;5.10;3.33;;;;;;;;;;5036046;28;20441;-80
2021/07/01 17:58:15;;;;;;;7.38;3.55;;;;;;;;;;5036034;28;20445;-80
2021/07/01 18:00:41;;;;;;;5.18;3.10;;;;;;;;;;5026527;28;20054;-81
2021/07/01 18:03:09;;;;;;;5.93;4.00;;;;;;;;;;5016474;28;20050;-81
2021/07/01 18:05:36;;;;;;;6.60;3.92;;;;;;;;;;5017106;28;20076;-80
2021/07/01 18:08:03;;;;;;;5.82;3.70;;;;;;;;;;5016065;28;20487;-79
2021/07/01 18:10:30;;;;;;;5.20;3.63;;;;;;;;;;5019899;28;20045;-79
2021/07/01 18:12:57;;;;;;;5.00;3.13;;;;;;;;;;5039878;28;20098;-79
2021/07/01 18:15:25;;;;;;;6.00;3.45;;;;;;;;;;5040160;28;20105;-78
2021/07/01 18:17:52;;;;;;;5.63;3.40;;;;;;;;;;5039740;28;20072;-79
2021/07/01 18:20:20;;;;;;;5.70;3.20;;;;;;;;;;5036726;28;20103;-78
2021/07/01 18:22:47;;;;;;;7.90;3.85;;;;;;;;;;5036606;28;20053;-80
2021/07/01 18:25:15;;;;;;;5.78;3.38;;;;;;;;;;5034744;28;20084;-79
2021/07/01 18:27:42;;;;;;;5.57;3.25;;;;;;;;;;5036901;28;20045;-79
2021/07/01 18:30:10;;;;;;;6.00;3.00;;;;;;;;;;5035540;28;20045;-80
2021/07/01 18:32:39;;;;;;;4.22;2.95;;;;;;;;;;5034739;28;20099;-79
2021/07/01 18:35:06;;;;;;;6.78;2.85;;;;;;;;;;5033909;28;20071;-79
2021/07/01 18:37:33;;;;;;;6.10;3.78;;;;;;;;;;5034195;28;20057;-79
2021/07/01 18:40:00;;;;;;;5.32;3.10;;;;;;;;;;5036390;28;20087;-80
2021/07/01 18:42:27;;;;;;;4.93;3.05;;;;;;;;;;5035775;28;20049;-79
2021/07/01 18:44:55;;;;;;;10.38;5.85;;;;;;;;;;5035615;28;20483;-80
2021/07/01 18:47:24;;;;;;;5.70;4.07;;;;;;;;;;5035719;28;20080;-78
2021/07/01 18:49:53;;;;;;;5.25;3.22;;;;;;;;;;5037535;28;20107;-79
2021/07/01 18:52:20;;;;;;;5.57;3.25;;;;;;;;;;5037335;28;20041;-78
2021/07/01 18:54:47;;;;;;;5.35;3.15;;;;;;;;;;5037868;28;20164;-79
2021/07/01 18:57:15;;;;;;;5.65;3.45;;;;;;;;;;5037815;28;20075;-79
2021/07/01 18:59:42;;;;;;;7.88;4.72;;;;;;;;;;5037152;28;20116;-80
2021/07/01 19:02:11;;;;;;;5.60;3.80;;;;;;;;;;5019345;28;20050;-80
2021/07/01 19:04:37;;;;;;;8.88;5.95;;;;;;;;;;5018928;28;20042;-80
2021/07/01 19:07:06;;;;;;;6.32;3.97;;;;;;;;;;5018299;28;20046;-79
2021/07/01 19:09:34;;;;;;;6.50;4.43;;;;;;;;;;5019089;28;20049;-79
2021/07/01 19:12:00;;;;;;;7.68;4.72;;;;;;;;;;5031299;28;20095;-79
2021/07/01 19:14:30;;;;;;;8.60;6.85;;;;;;;;;;5038337;28;20053;-78
2021/07/01 19:16:58;;;;;;;7.20;4.85;;;;;;;;;;5039940;28;20049;-79
2021/07/01 19:19:26;;;;;;;9.90;7.00;;;;;;;;;;5039596;28;20049;-81
2021/07/01 19:21:53;;;;;;;8.38;5.35;;;;;;;;;;5038916;28;20054;-80
2021/07/01 19:24:21;;;;;;;9.75;5.25;;;;;;;;;;5038493;28;20049;-79
2021/07/01 19:26:48;;;;;;;7.85;5.65;;;;;;;;;;5039643;28;20418;-79
2021/07/01 19:29:15;;;;;;;9.38;7.20;;;;;;;;;;5038476;28;20049;-79
2021/07/01 19:31:43;;;;;;;6.82;4.40;;;;;;;;;;5037374;28;20490;-80
2021/07/01 19:34:10;;;;;;;12.18;6.85;;;;;;;;;;5038156;28;20052;-81
2021/07/01 19:36:37;;;;;;;8.88;5.03;;;;;;;;;;5039014;28;20041;-79
2021/07/01 19:39:04;;;;;;;5.70;3.83;;;;;;;;;;5038537;28;20046;-79
2021/07/01 19:41:33;;;;;;;6.32;4.20;;;;;;;;;;5038898;28;20045;-79
2021/07/01 19:44:00;;;;;;;6.88;3.85;;;;;;;;;;5038339;28;20052;-79
2021/07/01 19:46:27;;;;;;;6.75;3.67;;;;;;;;;;5037977;28;20104;-79
2021/07/01 19:48:55;;;;;;;5.78;3.75;;;;;;;;;;5037696;28;20053;-79
2021/07/01 19:51:22;;;;;;;6.00;3.80;;;;;;;;;;5038611;28;20494;-80
2021/07/01 19:53:50;;;;;;;6.07;3.97;;;;;;;;;;5039171;28;20049;-79
2021/07/01 19:56:20;;;;;;;6.97;4.05;;;;;;;;;;5040787;28;20041;-79
2021/07/01 19:58:52;;;;;;;5.97;4.05;;;;;;;;;;5041449;28;20061;-79
2021/07/01 20:01:19;;;;;;;6.35;4.47;;;;;;;;;;5026458;28;20065;-79
2021/07/01 20:03:46;;;;;;;5.53;3.97;;;;;;;;;;5020971;28;20494;-79
2021/07/01 20:06:13;;;;;;;6.43;4.22;;;;;;;;;;5019627;28;20124;-79
2021/07/01 20:08:40;;;;;;;7.28;4.07;;;;;;;;;;5018268;28;20045;-79
2021/07/01 20:11:07;;;;;;;6.72;4.32;;;;;;;;;;5023681;28;20053;-78
2021/07/01 20:13:33;;;;;;;5.90;3.63;;;;;;;;;;5038475;28;20103;-79
2021/07/01 20:16:03;;;;;;;6.20;4.25;;;;;;;;;;5038880;28;20114;-79
2021/07/01 20:18:30;;;;;;;7.40;3.70;;;;;;;;;;5038469;28;20103;-79
2021/07/01 20:20:57;;;;;;;5.72;3.83;;;;;;;;;;5038957;28;20099;-79
2021/07/01 20:23:24;;;;;;;6.10;3.75;;;;;;;;;;5039685;28;20111;-79
2021/07/01 20:25:50;;;;;;;6.30;3.75;;;;;;;;;;5040367;28;20050;-79
2021/07/01 20:28:17;;;;;;;6.63;3.88;;;;;;;;;;5041373;28;20041;-80
2021/07/01 20:30:44;;;;;;;6.70;4.35;;;;;;;;;;5040825;28;20045;-79
2021/07/01 20:33:12;;;;;;;7.80;3.85;;;;;;;;;;5037820;28;20103;-79
2021/07/01 20:35:41;;;;;;;7.10;4.00;;;;;;;;;;5037247;28;20071;-79
2021/07/01 20:38:07;;;;;;;6.15;3.53;;;;;;;;;;5037458;28;20041;-79
2021/07/01 20:40:34;;;;;;;6.65;4.28;;;;;;;;;;5036821;28;20111;-79
2021/07/01 20:43:01;;;;;;;5.35;3.88;;;;;;;;;;5037424;28;20060;-79
2021/07/01 20:45:28;;;;;;;8.00;3.97;;;;;;;;;;5036856;28;20041;-79
2021/07/01 20:47:55;;;;;;;6.15;4.20;;;;;;;;;;5037288;28;20045;-80
2021/07/01 20:50:24;;;;;;;7.45;4.07;;;;;;;;;;5037219;28;20100;-79
2021/07/01 20:52:51;;;;;;;6.60;4.10;;;;;;;;;;5037112;28;20045;-79
2021/07/01 20:55:20;;;;;;;6.50;4.05;;;;;;;;;;5036840;28;20049;-79
2021/07/01 20:57:48;;;;;;;6.45;4.35;;;;;;;;;;5037315;28;20072;-79
2021/07/01 21:00:17;;;;;;;5.75;3.80;;;;;;;;;;5032471;28;20052;-80
2021/07/01 21:02:44;;;;;;;6.15;3.97;;;;;;;;;;5018394;28;20041;-80
2021/07/01 21:05:13;;;;;;;6.78;4.15;;;;;;;;;;5018698;28;20054;-79
2021/07/01 21:07:45;;;;;;;7.05;4.43;;;;;;;;;;5018170;28;20045;-79
2021/07/01 21:10:13;;;;;;;6.40;3.90;;;;;;;;;;5017643;28;20049;-80
2021/07/01 21:12:43;;;;;;;10.95;4.28;;;;;;;;;;5035632;28;20049;-79
2021/07/01 21:15:11;;;;;;;7.18;4.53;;;;;;;;;;5037778;28;20041;-80
2021/07/01 21:17:38;;;;;;;6.97;4.22;;;;;;;;;;5037432;28;20049;-79
2021/07/01 21:20:06;;;;;;;6.78;4.25;;;;;;;;;;5036976;28;20103;-80
2021/07/01 21:22:33;;;;;;;6.78;4.45;;;;;;;;;;5037071;28;20499;-79
2021/07/01 21:25:01;;;;;;;7.32;4.25;;;;;;;;;;5037381;28;20042;-79
2021/07/01 21:27:28;;;;;;;8.13;4.85;;;;;;;;;;5037492;28;20054;-79
2021/07/01 21:29:57;;;;;;;6.68;4.50;;;;;;;;;;5037049;28;20080;-79
2021/07/01 21:32:24;;;;;;;6.13;4.25;;;;;;;;;;5037164;28;20483;-79
2021/07/01 21:34:51;;;;;;;7.50;3.85;;;;;;;;;;5041475;28;20049;-79
2021/07/01 21:37:23;;;;;;;6.53;4.45;;;;;;;;;;5040401;28;20143;-79
2021/07/01 21:39:53;;;;;;;6.63;3.92;;;;;;;;;;5039581;28;20121;-79
2021/07/01 21:42:23;;;;;;;7.53;4.32;;;;;;;;;;5038804;28;20095;-79
2021/07/01 21:44:53;;;;;;;6.43;4.05;;;;;;;;;;5037830;28;20301;-79
2021/07/01 21:47:22;;;;;;;;;;;;;;;;;;5037450;28;20045;-79
2021/07/01 21:49:50;;;;;;;6.35;4.03;;;;;;;;;;5036762;28;19925;-79
2021/07/01 21:52:18;;;;;;;6.53;3.97;;;;;;;;;;5036448;28;20084;-79
2021/07/01 21:54:45;;;;;;;8.38;4.25;;;;;;;;;;5036388;28;20099;-78
2021/07/01 21:57:12;;;;;;;7.97;4.85;;;;;;;;;;5036426;28;20049;-78
2021/07/01 21:59:41;;;;;;;7.35;4.88;;;;;;;;;;5035498;28;20076;-79
2021/07/01 22:02:08;;;;;;;8.90;5.35;;;;;;;;;;5016512;28;20100;-79
2021/07/01 22:04:37;;;;;;;7.45;4.93;;;;;;;;;;5016832;28;20041;-78
2021/07/01 22:07:04;;;;;;;9.38;5.20;;;;;;;;;;5016711;28;20053;-79
2021/07/01 22:09:31;;;;;;;6.57;4.85;;;;;;;;;;5016822;28;20053;-79
2021/07/01 22:11:58;;;;;;;7.53;4.68;;;;;;;;;;5029062;28;20046;-79
2021/07/01 22:14:29;;;;;;;8.20;5.25;;;;;;;;;;5036752;28;20095;-78
2021/07/01 22:17:01;;;;;;;7.35;4.95;;;;;;;;;;5039477;28;20111;-78
2021/07/01 22:22:12;;;;;;;7.35;4.57;;;;;;;;;;5033082;28;20091;-79
2021/07/01 22:24:39;;;;;;;7.43;4.57;;;;;;;;;;5040474;28;20494;-79
2021/07/01 22:27:06;;;;;;;7.93;4.75;;;;;;;;;;5040614;28;20058;-79
2021/07/01 22:29:34;;;;;;;8.57;4.80;;;;;;;;;;5040605;28;20099;-79
2021/07/01 22:32:02;;;;;;;7.80;5.00;;;;;;;;;;5039400;28;20049;-79
2021/07/01 22:34:29;;;;;;;6.90;4.53;;;;;;;;;;5039969;28;20053;-79
2021/07/01 22:36:56;;;;;;;6.65;4.88;;;;;;;;;;5039150;28;20049;-79
2021/07/01 22:39:24;;;;;;;7.07;4.47;;;;;;;;;;5039633;28;20045;-79
2021/07/01 22:41:51;;;;;;;8.05;5.00;;;;;;;;;;5039121;28;20045;-80
2021/07/01 22:44:17;;;;;;;7.93;5.35;;;;;;;;;;5037724;28;20053;-78
2021/07/01 22:46:44;;;;;;;7.43;5.00;;;;;;;;;;5037299;28;20065;-79
2021/07/01 22:49:12;;;;;;;7.18;4.57;;;;;;;;;;5037521;28;20091;-79
2021/07/01 22:51:39;;;;;;;7.45;4.68;;;;;;;;;;5037311;28;20469;-79
2021/07/01 22:54:06;;;;;;;7.15;4.30;;;;;;;;;;5038404;28;20489;-79
2021/07/01 22:56:37;;;;;;;7.50;4.47;;;;;;;;;;5038557;28;20053;-79
2021/07/01 22:59:04;;;;;;;6.10;3.92;;;;;;;;;;5038398;28;20487;-79
2021/07/01 23:01:31;;;;;;;8.45;3.95;;;;;;;;;;5022646;28;20046;-78
2021/07/01 23:03:58;;;;;;;7.22;4.05;;;;;;;;;;5019641;28;20078;-79
2021/07/01 23:06:26;;;;;;;7.15;4.15;;;;;;;;;;5019697;28;20046;-79
2021/07/01 23:08:53;;;;;;;6.05;4.40;;;;;;;;;;5018966;28;20052;-79
2021/07/01 23:11:21;;;;;;;7.35;4.40;;;;;;;;;;5026548;28;20045;-78
2021/07/01 23:13:48;;;;;;;6.63;4.38;;;;;;;;;;5039615;28;20499;-78
2021/07/01 23:16:15;;;;;;;6.72;4.50;;;;;;;;;;5039447;28;20049;-78
2021/07/01 23:18:41;;;;;;;6.32;4.40;;;;;;;;;;5039237;28;20123;-78
2021/07/01 23:21:08;;;;;;;8.43;4.30;;;;;;;;;;5037438;28;20045;-78
2021/07/01 23:23:36;;;;;;;7.05;4.65;;;;;;;;;;5037489;28;20049;-79
2021/07/01 23:26:03;;;;;;;7.13;4.25;;;;;;;;;;5039572;28;20046;-79
2021/07/01 23:28:30;;;;;;;7.05;4.25;;;;;;;;;;5038750;28;20099;-80
2021/07/01 23:30:57;;;;;;;7.03;4.07;;;;;;;;;;5038692;28;20499;-79
2021/07/01 23:33:24;;;;;;;6.43;4.07;;;;;;;;;;5038528;28;20049;-79
2021/07/01 23:35:51;;;;;;;7.72;3.90;;;;;;;;;;5038305;28;20046;-79
2021/07/01 23:38:19;;;;;;;7.43;4.68;;;;;;;;;;5038613;28;20469;-79
2021/07/01 23:40:48;;;;;;;8.35;4.43;;;;;;;;;;5038459;28;20143;-79
2021/07/01 23:43:14;;;;;;;10.20;5.63;;;;;;;;;;5038458;28;20492;-79
2021/07/01 23:45:41;;;;;;;8.10;5.97;;;;;;;;;;5038372;28;20076;-79
2021/07/01 23:48:08;;;;;;;9.02;6.80;;;;;;;;;;5038367;28;20075;-78
2021/07/01 23:50:35;;;;;;;10.15;7.00;;;;;;;;;;5038205;28;20042;-80
2021/07/01 23:53:01;;;;;;;9.10;6.60;;;;;;;;;;5037670;28;20104;-78
2021/07/01 23:55:28;;;;;;;10.00;6.88;;;;;;;;;;5038389;28;20069;-78
2021/07/01 23:57:56;;;;;;;9.88;6.93;;;;;;;;;;5037082;28;20049;-78
